createdAt,value
2022-08-18T00:01:32.821Z,39.98
2022-08-18T00:06:27.997Z,39.82
2022-08-18T00:11:18.009Z,39.69
2022-08-18T00:16:10.755Z,40.02
2022-08-18T00:21:03.305Z,40.04
2022-08-18T00:25:56.307Z,39.63
2022-08-18T00:30:48.793Z,39.59
2022-08-18T00:35:41.435Z,39.82
2022-08-18T00:40:37.771Z,39.91
2022-08-18T00:45:26.564Z,39.96
2022-08-18T00:50:19.189Z,39.96
2022-08-18T00:55:11.998Z,39.95
2022-08-18T01:00:04.565Z,40.03
2022-08-18T01:09:45.106Z,39.82
2022-08-18T01:14:38.943Z,39.7
2022-08-18T01:19:31.374Z,40
2022-08-18T01:24:23.880Z,40.12
2022-08-18T01:34:09.336Z,39.93
2022-08-18T01:43:54.404Z,39.8
2022-08-18T01:48:46.974Z,39.65
2022-08-18T01:53:39.899Z,39.84
2022-08-18T01:58:32.169Z,39.92
2022-08-18T02:03:24.665Z,39.58
2022-08-18T02:08:17.200Z,39.61
2022-08-18T02:13:09.860Z,39.65
2022-08-18T02:18:02.235Z,39.61
2022-08-18T02:22:54.560Z,39.77
2022-08-18T02:27:47.448Z,39.61
2022-08-18T02:32:39.902Z,39.73
2022-08-18T02:37:31.901Z,39.78
2022-08-18T02:42:24.322Z,39.7
2022-08-18T02:47:17.156Z,39.74
2022-08-18T02:52:09.622Z,39.86
2022-08-18T02:57:02.071Z,39.74
2022-08-18T03:01:54.428Z,39.77
2022-08-18T03:06:47.058Z,39.73
2022-08-18T03:11:39.664Z,39.76
2022-08-18T03:16:32.274Z,39.85
2022-08-18T03:21:25.060Z,39.81
2022-08-18T03:26:17.412Z,39.78
2022-08-18T03:31:09.679Z,39.86
2022-08-18T03:36:02.162Z,40.02
2022-08-18T03:40:54.427Z,39.93
2022-08-18T03:45:47.111Z,39.82
2022-08-18T03:50:39.531Z,40.09
2022-08-18T03:55:31.994Z,40.09
2022-08-18T04:00:24.833Z,40.04
2022-08-18T04:05:17.348Z,40.01
2022-08-18T04:10:16.228Z,40.14
2022-08-18T04:15:02.122Z,40.01
2022-08-18T04:19:54.723Z,39.87
2022-08-18T04:24:47.174Z,40.06
2022-08-18T04:29:40.116Z,39.96
2022-08-18T04:34:32.769Z,39.8
2022-08-18T04:39:25.324Z,39.85
2022-08-18T04:44:18.034Z,40.09
2022-08-18T04:49:10.554Z,40.25
2022-08-18T04:54:02.597Z,40.8
2022-08-18T04:58:54.535Z,42.09
2022-08-18T05:03:50.061Z,42.3
2022-08-18T05:08:39.376Z,42.08
2022-08-18T05:13:32.239Z,42.77
2022-08-18T05:18:24.813Z,42.32
2022-08-18T05:23:17.313Z,43.26
2022-08-18T05:28:08.941Z,43.72
2022-08-18T05:33:01.899Z,43.59
2022-08-18T05:37:54.142Z,44.08
2022-08-18T05:42:46.369Z,45.25
2022-08-18T05:47:38.623Z,45.64
2022-08-18T05:52:31.053Z,46.53
2022-08-18T05:57:23.274Z,45.68
2022-08-18T06:02:16.411Z,44.49
2022-08-18T06:07:09.403Z,44
2022-08-18T06:12:01.718Z,43.68
2022-08-18T06:16:54.445Z,43.4
2022-08-18T06:21:41.646Z,44.02
2022-08-18T06:26:34.098Z,46.21
2022-08-18T06:31:29.496Z,44.23
2022-08-18T06:36:21.544Z,44.12
2022-08-18T06:41:37.817Z,45
2022-08-18T06:46:05.332Z,44.43
2022-08-18T06:50:53.582Z,44
2022-08-18T06:55:45.462Z,45.17
2022-08-18T07:00:39.565Z,44.27
2022-08-18T07:05:32.059Z,44.04
2022-08-18T07:10:24.185Z,44.51
2022-08-18T07:15:17.268Z,45.03
2022-08-18T07:20:10.070Z,45.2
2022-08-18T07:25:05.226Z,45.44
2022-08-18T07:29:54.185Z,45.8
2022-08-18T07:34:47.985Z,44.92
2022-08-18T07:39:39.004Z,46.42
2022-08-18T07:44:31.486Z,46.1
2022-08-18T07:49:23.995Z,45.96
2022-08-18T07:59:10.799Z,46.53
2022-08-18T08:08:56.935Z,47.43
2022-08-18T08:13:55.536Z,48.59
2022-08-18T08:18:41.955Z,49.44
2022-08-18T08:23:34.673Z,49.2
2022-08-18T08:28:27.134Z,49.03
2022-08-18T08:33:20.182Z,50.15
2022-08-18T08:38:36.968Z,50.99
2022-08-18T08:43:04.985Z,51.87
2022-08-18T08:48:04.300Z,50.92
2022-08-18T08:52:50.262Z,50.54
2022-08-18T08:57:42.895Z,50.82
2022-08-18T09:02:47.671Z,51.31
2022-08-18T09:07:28.003Z,51.78
2022-08-18T09:12:20.597Z,52.3
2022-08-18T09:17:12.907Z,52.88
2022-08-18T09:22:05.026Z,51.84
2022-08-18T09:26:57.519Z,51.9
2022-08-18T09:31:49.894Z,52.59
2022-08-18T09:36:42.383Z,53.15
2022-08-18T09:41:35.163Z,53.32
2022-08-18T09:46:27.939Z,53.71
2022-08-18T09:51:20.542Z,52.92
2022-08-18T09:56:13.302Z,52.08
2022-08-18T10:01:06.210Z,52.47
2022-08-18T10:05:59.521Z,51.91
2022-08-18T10:10:57.026Z,51.93
2022-08-18T10:15:44.437Z,52.49
2022-08-18T10:20:37.047Z,51.24
2022-08-18T10:25:29.629Z,51.49
2022-08-18T10:30:22.249Z,50.87
2022-08-18T10:35:14.931Z,52.24
2022-08-18T10:40:07.931Z,52.71
2022-08-18T10:45:00.541Z,53.19
2022-08-18T10:49:53.372Z,54.02
2022-08-18T10:54:51.516Z,54.16
2022-08-18T10:59:41.498Z,54.42
2022-08-18T11:04:33.703Z,54.63
2022-08-18T11:09:24.107Z,54.15
2022-08-18T11:14:16.536Z,53.71
2022-08-18T11:19:09.243Z,53.65
2022-08-18T11:24:01.637Z,53.77
2022-08-18T11:28:54.231Z,53.71
2022-08-18T11:33:46.798Z,53.64
2022-08-18T11:38:39.309Z,53.44
2022-08-18T11:43:39.194Z,53.08
2022-08-18T11:48:28.094Z,53.1
2022-08-18T11:53:17.573Z,53.54
2022-08-18T11:58:10.398Z,53.95
2022-08-18T12:03:02.503Z,54.52
2022-08-18T12:12:47.971Z,53.72
2022-08-18T12:17:40.507Z,53.95
2022-08-18T12:22:32.852Z,53.94
2022-08-18T12:27:25.473Z,53.41
2022-08-18T12:32:41.664Z,53.33
2022-08-18T12:37:25.683Z,53.35
2022-08-18T12:42:03.351Z,53.4
2022-08-18T12:46:55.894Z,53.82
2022-08-18T12:51:50.203Z,54.22
2022-08-18T12:56:40.970Z,54.86
2022-08-18T13:01:34.295Z,54.49
2022-08-18T13:06:27.558Z,55.33
2022-08-18T13:11:21.366Z,54.98
2022-08-18T13:16:16.249Z,54.71
2022-08-18T13:21:04.572Z,54.27
2022-08-18T13:25:59.233Z,54.36
2022-08-18T13:30:49.925Z,54.98
2022-08-18T13:35:44.463Z,54.6
2022-08-18T13:40:35.571Z,54.59
2022-08-18T13:45:28.348Z,54.43
2022-08-18T13:50:21.488Z,54.64
2022-08-18T13:55:16.704Z,54.6
2022-08-18T14:00:06.860Z,54.49
2022-08-18T14:04:59.501Z,54.3
2022-08-18T14:09:52.168Z,53.92
2022-08-18T14:14:44.472Z,53.35
2022-08-18T14:24:29.967Z,52.57
2022-08-18T14:34:15.321Z,51.67
2022-08-18T14:44:12.800Z,51.76
2022-08-18T14:53:45.590Z,50.17
2022-08-18T15:03:31.834Z,49.65
2022-08-18T15:08:23.658Z,49.19
2022-08-18T15:13:16.492Z,49.4
2022-08-18T15:18:09.808Z,49.62
2022-08-18T15:23:01.912Z,49.54
2022-08-18T15:27:54.496Z,49.38
2022-08-18T15:32:47.151Z,49.17
2022-08-18T15:37:39.620Z,48.85
2022-08-18T15:42:33.177Z,49.02
2022-08-18T15:47:25.413Z,49.08
2022-08-18T15:52:19.828Z,49.09
2022-08-18T15:57:10.404Z,48.84
2022-08-18T16:02:02.908Z,48.96
2022-08-18T16:06:55.393Z,48.92
2022-08-18T16:11:47.981Z,48.71
2022-08-18T16:16:40.342Z,48.66
2022-08-18T16:21:32.837Z,48.8
2022-08-18T16:26:25.270Z,48.8
2022-08-18T16:31:17.816Z,48.66
2022-08-18T16:36:10.375Z,48.66
2022-08-18T16:41:02.913Z,48.67
2022-08-18T16:45:55.526Z,48.61
2022-08-18T16:50:48.212Z,48.53
2022-08-18T16:55:40.815Z,48.62
2022-08-18T17:00:33.412Z,48.54
2022-08-18T17:05:26.019Z,48.7
2022-08-18T17:10:18.545Z,48.69
2022-08-18T17:15:06.239Z,49.05
2022-08-18T17:19:58.883Z,49.5
2022-08-18T17:24:52.806Z,49.05
2022-08-18T17:29:45.364Z,48.9
2022-08-18T17:34:39.568Z,49.04
2022-08-18T17:39:30.513Z,48.87
2022-08-18T17:44:28.629Z,48.91
2022-08-18T17:49:16.063Z,48.89
2022-08-18T17:54:08.396Z,48.99
2022-08-18T17:59:01.130Z,49.11
2022-08-18T18:03:53.912Z,49.81
2022-08-18T18:08:46.581Z,49.66
2022-08-18T18:13:38.969Z,49.5
2022-08-18T18:18:30.990Z,49.56
2022-08-18T18:23:23.440Z,49.56
2022-08-18T18:28:15.952Z,49.54
2022-08-18T18:33:08.606Z,49.22
2022-08-18T18:38:01.191Z,49.25
2022-08-18T18:42:54.089Z,49
2022-08-18T18:47:46.404Z,49.21
2022-08-18T18:52:39.177Z,49.42
2022-08-18T18:57:31.764Z,49.14
2022-08-18T19:02:34.422Z,49.13
2022-08-18T19:07:20.751Z,48.98
2022-08-18T19:12:08.941Z,49.19
2022-08-18T19:17:01.484Z,49.15
2022-08-18T19:22:05.136Z,49.14
2022-08-18T19:26:46.494Z,49.2
2022-08-18T19:31:39.328Z,48.96
2022-08-18T19:36:31.988Z,48.98
2022-08-18T19:41:27.854Z,49.42
2022-08-18T19:46:17.564Z,49.34
2022-08-18T19:51:10.176Z,49.25
2022-08-18T19:56:02.679Z,49.19
2022-08-18T20:00:55.487Z,49.45
2022-08-18T20:05:48.268Z,49.73
2022-08-18T20:10:40.795Z,49.85
2022-08-18T20:20:26.782Z,49.66
2022-08-18T20:30:12.142Z,50.39
2022-08-18T20:35:04.945Z,50.4
2022-08-18T20:39:57.526Z,50.71
2022-08-18T20:49:42.625Z,50.77
2022-08-18T20:54:35.042Z,50.85
2022-08-18T20:59:27.966Z,51.27
2022-08-18T21:04:20.510Z,51.01
2022-08-18T21:09:13.003Z,50.97
2022-08-18T21:14:05.743Z,50.77
2022-08-18T21:18:58.479Z,50.89
2022-08-18T21:23:51.057Z,50.85
2022-08-18T21:28:43.891Z,50.9
2022-08-18T21:33:36.810Z,50.62
2022-08-18T21:38:29.548Z,50.43
2022-08-18T21:43:22.040Z,50.59
2022-08-18T21:48:14.801Z,50.76
2022-08-18T21:53:07.267Z,50.62
2022-08-18T21:57:59.781Z,50.64
2022-08-18T22:02:52.644Z,50.67
2022-08-18T22:07:45.258Z,50.64
2022-08-18T22:12:38.162Z,50.3
2022-08-18T22:17:30.748Z,50.34
2022-08-18T22:22:23.155Z,50.46
2022-08-18T22:27:15.889Z,50.41
2022-08-18T22:32:08.613Z,50.41
2022-08-18T22:37:01.257Z,50.27
2022-08-18T22:41:53.865Z,50.35
2022-08-18T22:46:46.492Z,50.09
2022-08-18T22:51:38.900Z,50.02
2022-08-18T22:56:34.836Z,50.26
2022-08-18T23:01:24.010Z,50.31
2022-08-18T23:06:16.350Z,50.32
2022-08-18T23:11:08.850Z,50.37
2022-08-18T23:16:12.593Z,50.63
2022-08-18T23:20:54.497Z,50.62
2022-08-18T23:25:46.801Z,50.68
2022-08-18T23:30:39.639Z,50.66
2022-08-18T23:35:32.435Z,50.13
2022-08-18T23:40:25.061Z,50.39
2022-08-18T23:45:17.629Z,50.31
2022-08-18T23:50:10.200Z,50.48
2022-08-18T23:55:03.060Z,50.26
2022-08-18T23:59:55.746Z,50.37
